sensor_id;sensor_type;location;lat;lon;timestamp;pressure;altitude;pressure_sealevel;temperature;humidity
10720;BME280;5411;58.386;15.560;2023-02-02T00:00:27;99152.28;;;-0.07;100.00
10720;BME280;5411;58.386;15.560;2023-02-02T00:02:59;99157.69;;;-0.08;100.00
10720;BME280;5411;58.386;15.560;2023-02-02T00:05:27;99161.31;;;-0.09;100.00
10720;BME280;5411;58.386;15.560;2023-02-02T00:07:57;99169.03;;;-0.08;100.00
10720;BME280;5411;58.386;15.560;2023-02-02T00:10:25;99167.72;;;-0.04;100.00
10720;BME280;5411;58.386;15.560;2023-02-02T00:12:54;99173.66;;;-0.02;100.00
10720;BME280;5411;58.386;15.560;2023-02-02T00:15:25;99180.56;;;-0.01;100.00
10720;BME280;5411;58.386;15.560;2023-02-02T00:17:53;99183.81;;;0.02;100.00
10720;BME280;5411;58.386;15.560;2023-02-02T00:20:22;99189.06;;;0.02;100.00
10720;BME280;5411;58.386;15.560;2023-02-02T00:22:50;99193.88;;;-0.02;100.00
10720;BME280;5411;58.386;15.560;2023-02-02T00:25:18;99187.94;;;-0.04;100.00
10720;BME280;5411;58.386;15.560;2023-02-02T00:27:50;99189.75;;;-0.05;100.00
10720;BME280;5411;58.386;15.560;2023-02-02T00:30:19;99194.84;;;-0.03;100.00
10720;BME280;5411;58.386;15.560;2023-02-02T00:32:50;99197.78;;;-0.06;100.00
10720;BME280;5411;58.386;15.560;2023-02-02T00:35:23;99205.53;;;-0.05;100.00
10720;BME280;5411;58.386;15.560;2023-02-02T00:37:51;99208.81;;;-0.03;100.00
10720;BME280;5411;58.386;15.560;2023-02-02T00:40:20;99212.41;;;-0.04;100.00
10720;BME280;5411;58.386;15.560;2023-02-02T00:42:49;99224.41;;;-0.01;100.00
10720;BME280;5411;58.386;15.560;2023-02-02T00:45:17;99231.50;;;-0.02;100.00
10720;BME280;5411;58.386;15.560;2023-02-02T00:47:46;99227.69;;;0.01;100.00
10720;BME280;5411;58.386;15.560;2023-02-02T00:50:19;99241.03;;;-0.01;100.00
10720;BME280;5411;58.386;15.560;2023-02-02T00:53:08;99240.00;;;0.00;100.00
10720;BME280;5411;58.386;15.560;2023-02-02T00:55:36;99241.84;;;0.00;100.00
10720;BME280;5411;58.386;15.560;2023-02-02T00:58:05;99247.56;;;-0.05;100.00
10720;BME280;5411;58.386;15.560;2023-02-02T01:00:33;99260.88;;;-0.06;100.00
10720;BME280;5411;58.386;15.560;2023-02-02T01:03:01;99254.28;;;-0.10;100.00
10720;BME280;5411;58.386;15.560;2023-02-02T01:05:35;99263.34;;;-0.05;100.00
10720;BME280;5411;58.386;15.560;2023-02-02T01:08:04;99265.63;;;-0.10;100.00
10720;BME280;5411;58.386;15.560;2023-02-02T01:10:33;99277.78;;;-0.17;100.00
10720;BME280;5411;58.386;15.560;2023-02-02T01:13:01;99273.81;;;-0.21;100.00
10720;BME280;5411;58.386;15.560;2023-02-02T01:15:30;99286.44;;;-0.24;100.00
10720;BME280;5411;58.386;15.560;2023-02-02T01:17:58;99308.81;;;-0.28;100.00
10720;BME280;5411;58.386;15.560;2023-02-02T01:20:26;99311.69;;;-0.40;100.00
10720;BME280;5411;58.386;15.560;2023-02-02T01:23:01;99306.09;;;-0.45;100.00
10720;BME280;5411;58.386;15.560;2023-02-02T01:25:29;99316.09;;;-0.48;100.00
10720;BME280;5411;58.386;15.560;2023-02-02T01:27:58;99325.44;;;-0.54;100.00
10720;BME280;5411;58.386;15.560;2023-02-02T01:30:26;99332.00;;;-0.58;100.00
10720;BME280;5411;58.386;15.560;2023-02-02T01:32:55;99326.38;;;-0.63;100.00
10720;BME280;5411;58.386;15.560;2023-02-02T01:35:23;99321.78;;;-0.61;100.00
10720;BME280;5411;58.386;15.560;2023-02-02T01:37:52;99337.03;;;-0.64;100.00
10720;BME280;5411;58.386;15.560;2023-02-02T01:40:21;99337.72;;;-0.62;100.00
10720;BME280;5411;58.386;15.560;2023-02-02T01:42:54;99344.59;;;-0.61;100.00
10720;BME280;5411;58.386;15.560;2023-02-02T01:45:27;99353.81;;;-0.57;100.00
10720;BME280;5411;58.386;15.560;2023-02-02T01:47:57;99349.88;;;-0.53;100.00
10720;BME280;5411;58.386;15.560;2023-02-02T01:50:30;99347.59;;;-0.56;100.00
10720;BME280;5411;58.386;15.560;2023-02-02T01:53:01;99356.97;;;-0.54;100.00
10720;BME280;5411;58.386;15.560;2023-02-02T01:55:34;99356.41;;;-0.65;100.00
10720;BME280;5411;58.386;15.560;2023-02-02T01:58:05;99370.84;;;-0.69;100.00
10720;BME280;5411;58.386;15.560;2023-02-02T02:00:36;99371.59;;;-0.77;100.00
10720;BME280;5411;58.386;15.560;2023-02-02T02:03:07;99379.63;;;-0.79;100.00
10720;BME280;5411;58.386;15.560;2023-02-02T02:05:41;99380.25;;;-0.85;100.00
10720;BME280;5411;58.386;15.560;2023-02-02T02:08:14;99385.81;;;-0.88;100.00
10720;BME280;5411;58.386;15.560;2023-02-02T02:10:52;99392.34;;;-0.92;100.00
10720;BME280;5411;58.386;15.560;2023-02-02T02:13:34;99396.25;;;-0.96;100.00
10720;BME280;5411;58.386;15.560;2023-02-02T02:16:25;99406.22;;;-0.99;100.00
10720;BME280;5411;58.386;15.560;2023-02-02T02:19:06;99404.59;;;-1.00;100.00
10720;BME280;5411;58.386;15.560;2023-02-02T02:21:49;99415.75;;;-0.98;100.00
10720;BME280;5411;58.386;15.560;2023-02-02T02:28:41;99430.53;;;-0.97;100.00
10720;BME280;5411;58.386;15.560;2023-02-02T02:34:15;99436.84;;;-1.08;100.00
10720;BME280;5411;58.386;15.560;2023-02-02T02:36:50;99437.28;;;-1.13;100.00
10720;BME280;5411;58.386;15.560;2023-02-02T02:39:26;99441.88;;;-1.15;100.00
10720;BME280;5411;58.386;15.560;2023-02-02T02:41:59;99446.13;;;-1.14;100.00
10720;BME280;5411;58.386;15.560;2023-02-02T02:44:32;99450.41;;;-1.13;100.00
10720;BME280;5411;58.386;15.560;2023-02-02T02:47:01;99437.44;;;-1.14;100.00
10720;BME280;5411;58.386;15.560;2023-02-02T02:49:32;99451.25;;;-1.12;100.00
10720;BME280;5411;58.386;15.560;2023-02-02T02:52:00;99452.50;;;-1.16;100.00
10720;BME280;5411;58.386;15.560;2023-02-02T02:54:31;99451.19;;;-1.20;100.00
10720;BME280;5411;58.386;15.560;2023-02-02T02:57:17;99454.59;;;-1.20;100.00
10720;BME280;5411;58.386;15.560;2023-02-02T02:59:54;99470.88;;;-1.16;100.00
10720;BME280;5411;58.386;15.560;2023-02-02T03:02:32;99481.00;;;-1.21;100.00
10720;BME280;5411;58.386;15.560;2023-02-02T03:05:11;99487.66;;;-1.27;100.00
10720;BME280;5411;58.386;15.560;2023-02-02T03:07:47;99491.19;;;-1.36;100.00
10720;BME280;5411;58.386;15.560;2023-02-02T03:10:20;99495.97;;;-1.31;100.00
10720;BME280;5411;58.386;15.560;2023-02-02T03:12:51;99495.59;;;-1.36;100.00
10720;BME280;5411;58.386;15.560;2023-02-02T03:15:19;99512.47;;;-1.39;100.00
10720;BME280;5411;58.386;15.560;2023-02-02T03:17:49;99513.97;;;-1.36;100.00
10720;BME280;5411;58.386;15.560;2023-02-02T03:20:20;99508.03;;;-1.38;100.00
10720;BME280;5411;58.386;15.560;2023-02-02T03:22:49;99502.56;;;-1.45;100.00
10720;BME280;5411;58.386;15.560;2023-02-02T03:25:17;99518.06;;;-1.52;100.00
10720;BME280;5411;58.386;15.560;2023-02-02T03:27:45;99529.22;;;-1.50;100.00
10720;BME280;5411;58.386;15.560;2023-02-02T03:30:14;99528.56;;;-1.52;100.00
10720;BME280;5411;58.386;15.560;2023-02-02T03:32:43;99528.56;;;-1.52;100.00
10720;BME280;5411;58.386;15.560;2023-02-02T03:35:11;99533.66;;;-1.50;100.00
10720;BME280;5411;58.386;15.560;2023-02-02T03:37:41;99543.59;;;-1.54;100.00
10720;BME280;5411;58.386;15.560;2023-02-02T03:40:10;99552.44;;;-1.55;100.00
10720;BME280;5411;58.386;15.560;2023-02-02T03:42:38;99551.47;;;-1.54;100.00
10720;BME280;5411;58.386;15.560;2023-02-02T03:45:08;99553.94;;;-1.52;100.00
10720;BME280;5411;58.386;15.560;2023-02-02T03:47:37;99559.34;;;-1.54;100.00
10720;BME280;5411;58.386;15.560;2023-02-02T03:50:08;99568.44;;;-1.58;100.00
10720;BME280;5411;58.386;15.560;2023-02-02T03:52:37;99578.84;;;-1.66;100.00
10720;BME280;5411;58.386;15.560;2023-02-02T03:55:08;99593.50;;;-1.73;100.00
10720;BME280;5411;58.386;15.560;2023-02-02T03:57:36;99589.97;;;-1.91;100.00
10720;BME280;5411;58.386;15.560;2023-02-02T04:00:06;99598.00;;;-2.02;100.00
10720;BME280;5411;58.386;15.560;2023-02-02T04:02:35;99602.97;;;-2.09;100.00
10720;BME280;5411;58.386;15.560;2023-02-02T04:05:03;99605.91;;;-2.22;100.00
10720;BME280;5411;58.386;15.560;2023-02-02T04:07:32;99619.56;;;-2.28;100.00
10720;BME280;5411;58.386;15.560;2023-02-02T04:10:00;99613.91;;;-2.33;100.00
10720;BME280;5411;58.386;15.560;2023-02-02T04:12:33;99623.00;;;-2.37;100.00
10720;BME280;5411;58.386;15.560;2023-02-02T04:15:02;99628.81;;;-2.43;100.00
10720;BME280;5411;58.386;15.560;2023-02-02T04:17:33;99634.88;;;-2.42;100.00
10720;BME280;5411;58.386;15.560;2023-02-02T04:20:02;99637.75;;;-2.45;100.00
10720;BME280;5411;58.386;15.560;2023-02-02T04:22:30;99638.03;;;-2.48;100.00
10720;BME280;5411;58.386;15.560;2023-02-02T04:24:58;99644.66;;;-2.54;100.00
10720;BME280;5411;58.386;15.560;2023-02-02T04:27:27;99654.16;;;-2.53;100.00
10720;BME280;5411;58.386;15.560;2023-02-02T04:29:59;99660.19;;;-2.53;100.00
10720;BME280;5411;58.386;15.560;2023-02-02T04:32:27;99660.75;;;-2.49;100.00
10720;BME280;5411;58.386;15.560;2023-02-02T04:34:56;99657.31;;;-2.59;100.00
10720;BME280;5411;58.386;15.560;2023-02-02T04:37:24;99677.16;;;-2.57;100.00
10720;BME280;5411;58.386;15.560;2023-02-02T04:39:53;99675.22;;;-2.64;100.00
10720;BME280;5411;58.386;15.560;2023-02-02T04:42:21;99676.59;;;-2.70;100.00
10720;BME280;5411;58.386;15.560;2023-02-02T04:44:49;99682.94;;;-2.72;100.00
10720;BME280;5411;58.386;15.560;2023-02-02T04:47:19;99690.78;;;-2.72;100.00
10720;BME280;5411;58.386;15.560;2023-02-02T04:49:48;99691.22;;;-2.67;100.00
10720;BME280;5411;58.386;15.560;2023-02-02T04:52:16;99701.13;;;-2.71;100.00
10720;BME280;5411;58.386;15.560;2023-02-02T04:54:45;99702.78;;;-2.70;100.00
10720;BME280;5411;58.386;15.560;2023-02-02T04:57:13;99711.84;;;-2.74;100.00
10720;BME280;5411;58.386;15.560;2023-02-02T04:59:42;99716.63;;;-2.79;100.00
10720;BME280;5411;58.386;15.560;2023-02-02T05:02:10;99722.28;;;-2.83;100.00
10720;BME280;5411;58.386;15.560;2023-02-02T05:04:40;99718.59;;;-2.81;100.00
10720;BME280;5411;58.386;15.560;2023-02-02T05:07:09;99728.22;;;-2.81;100.00
10720;BME280;5411;58.386;15.560;2023-02-02T05:09:37;99729.56;;;-2.87;100.00
10720;BME280;5411;58.386;15.560;2023-02-02T05:12:05;99741.84;;;-2.88;100.00
10720;BME280;5411;58.386;15.560;2023-02-02T05:14:34;99745.53;;;-2.90;100.00
10720;BME280;5411;58.386;15.560;2023-02-02T05:17:02;99740.16;;;-2.98;100.00
10720;BME280;5411;58.386;15.560;2023-02-02T05:19:30;99756.81;;;-2.99;100.00
10720;BME280;5411;58.386;15.560;2023-02-02T05:22:01;99765.47;;;-2.99;100.00
10720;BME280;5411;58.386;15.560;2023-02-02T05:24:29;99769.38;;;-2.93;100.00
10720;BME280;5411;58.386;15.560;2023-02-02T05:26:57;99777.22;;;-2.93;100.00
10720;BME280;5411;58.386;15.560;2023-02-02T05:29:26;99783.41;;;-2.94;100.00
10720;BME280;5411;58.386;15.560;2023-02-02T05:31:55;99795.78;;;-2.96;100.00
10720;BME280;5411;58.386;15.560;2023-02-02T05:34:23;99796.44;;;-3.04;100.00
10720;BME280;5411;58.386;15.560;2023-02-02T05:36:52;99810.91;;;-3.00;100.00
10720;BME280;5411;58.386;15.560;2023-02-02T05:39:21;99811.56;;;-3.07;100.00
10720;BME280;5411;58.386;15.560;2023-02-02T05:41:50;99823.81;;;-3.08;100.00
10720;BME280;5411;58.386;15.560;2023-02-02T05:44:18;99828.34;;;-3.10;100.00
10720;BME280;5411;58.386;15.560;2023-02-02T05:46:46;99830.25;;;-3.12;100.00
10720;BME280;5411;58.386;15.560;2023-02-02T05:49:16;99836.81;;;-3.17;100.00
10720;BME280;5411;58.386;15.560;2023-02-02T05:51:46;99841.34;;;-3.19;100.00
10720;BME280;5411;58.386;15.560;2023-02-02T05:54:15;99852.91;;;-3.22;100.00
10720;BME280;5411;58.386;15.560;2023-02-02T05:56:49;99866.25;;;-3.25;100.00
10720;BME280;5411;58.386;15.560;2023-02-02T05:59:17;99860.00;;;-3.34;100.00
10720;BME280;5411;58.386;15.560;2023-02-02T06:01:46;99862.41;;;-3.42;100.00
10720;BME280;5411;58.386;15.560;2023-02-02T06:04:15;99873.38;;;-3.48;100.00
10720;BME280;5411;58.386;15.560;2023-02-02T06:06:43;99880.50;;;-3.50;100.00
10720;BME280;5411;58.386;15.560;2023-02-02T06:09:15;99884.91;;;-3.50;100.00
10720;BME280;5411;58.386;15.560;2023-02-02T06:11:43;99879.22;;;-3.55;100.00
10720;BME280;5411;58.386;15.560;2023-02-02T06:14:13;99879.09;;;-3.54;100.00
10720;BME280;5411;58.386;15.560;2023-02-02T06:16:42;99893.69;;;-3.51;100.00
10720;BME280;5411;58.386;15.560;2023-02-02T06:19:11;99894.41;;;-3.49;100.00
10720;BME280;5411;58.386;15.560;2023-02-02T06:21:40;99894.53;;;-3.51;100.00
10720;BME280;5411;58.386;15.560;2023-02-02T06:24:08;99894.66;;;-3.52;100.00
10720;BME280;5411;58.386;15.560;2023-02-02T06:26:37;99899.06;;;-3.53;100.00
10720;BME280;5411;58.386;15.560;2023-02-02T06:29:06;99912.94;;;-3.52;100.00
10720;BME280;5411;58.386;15.560;2023-02-02T06:31:35;99907.66;;;-3.62;100.00
10720;BME280;5411;58.386;15.560;2023-02-02T06:34:04;99917.97;;;-3.61;100.00
10720;BME280;5411;58.386;15.560;2023-02-02T06:36:33;99920.84;;;-3.64;100.00
10720;BME280;5411;58.386;15.560;2023-02-02T06:39:01;99931.28;;;-3.64;100.00
10720;BME280;5411;58.386;15.560;2023-02-02T06:41:31;99931.53;;;-3.67;100.00
10720;BME280;5411;58.386;15.560;2023-02-02T06:44:01;99935.91;;;-3.67;100.00
10720;BME280;5411;58.386;15.560;2023-02-02T06:46:29;99941.66;;;-3.73;100.00
10720;BME280;5411;58.386;15.560;2023-02-02T06:49:00;99944.84;;;-3.81;100.00
10720;BME280;5411;58.386;15.560;2023-02-02T06:51:31;99959.00;;;-3.83;100.00
10720;BME280;5411;58.386;15.560;2023-02-02T06:54:00;99961.47;;;-3.82;100.00
10720;BME280;5411;58.386;15.560;2023-02-02T06:56:30;99963.28;;;-3.82;100.00
10720;BME280;5411;58.386;15.560;2023-02-02T06:58:58;99971.09;;;-3.82;100.00
10720;BME280;5411;58.386;15.560;2023-02-02T07:01:27;99970.03;;;-3.80;100.00
10720;BME280;5411;58.386;15.560;2023-02-02T07:03:55;99973.25;;;-3.76;100.00
10720;BME280;5411;58.386;15.560;2023-02-02T07:06:28;99987.16;;;-3.87;100.00
10720;BME280;5411;58.386;15.560;2023-02-02T07:08:59;99985.72;;;-3.91;100.00
10720;BME280;5411;58.386;15.560;2023-02-02T07:11:29;99993.06;;;-3.85;100.00
10720;BME280;5411;58.386;15.560;2023-02-02T07:14:06;99987.84;;;-3.96;100.00
10720;BME280;5411;58.386;15.560;2023-02-02T07:16:35;99999.03;;;-3.94;100.00
10720;BME280;5411;58.386;15.560;2023-02-02T07:19:05;100002.97;;;-4.00;100.00
10720;BME280;5411;58.386;15.560;2023-02-02T07:21:35;100017.31;;;-3.94;100.00
10720;BME280;5411;58.386;15.560;2023-02-02T07:24:06;100026.59;;;-4.01;100.00
10720;BME280;5411;58.386;15.560;2023-02-02T07:26:35;100026.94;;;-4.06;100.00
10720;BME280;5411;58.386;15.560;2023-02-02T07:29:04;100045.94;;;-4.15;100.00
10720;BME280;5411;58.386;15.560;2023-02-02T07:31:32;100048.28;;;-4.23;100.00
10720;BME280;5411;58.386;15.560;2023-02-02T07:34:02;100057.31;;;-4.27;100.00
10720;BME280;5411;58.386;15.560;2023-02-02T07:36:31;100065.25;;;-4.28;100.00
10720;BME280;5411;58.386;15.560;2023-02-02T07:39:04;100062.75;;;-4.30;100.00
10720;BME280;5411;58.386;15.560;2023-02-02T07:41:34;100060.47;;;-4.35;100.00
10720;BME280;5411;58.386;15.560;2023-02-02T07:44:04;100058.69;;;-4.34;100.00
10720;BME280;5411;58.386;15.560;2023-02-02T07:46:33;100070.09;;;-4.35;100.00
10720;BME280;5411;58.386;15.560;2023-02-02T07:49:04;100069.63;;;-4.40;100.00
10720;BME280;5411;58.386;15.560;2023-02-02T07:51:32;100066.63;;;-4.47;100.00
10720;BME280;5411;58.386;15.560;2023-02-02T07:54:05;100077.66;;;-4.43;100.00
10720;BME280;5411;58.386;15.560;2023-02-02T07:56:34;100085.50;;;-4.43;100.00
10720;BME280;5411;58.386;15.560;2023-02-02T07:59:04;100089.53;;;-4.39;100.00
10720;BME280;5411;58.386;15.560;2023-02-02T08:01:34;100082.31;;;-4.36;100.00
10720;BME280;5411;58.386;15.560;2023-02-02T08:04:03;100089.59;;;-4.28;100.00
10720;BME280;5411;58.386;15.560;2023-02-02T08:06:33;100093.84;;;-4.27;100.00
10720;BME280;5411;58.386;15.560;2023-02-02T08:09:05;100100.38;;;-4.21;99.95
10720;BME280;5411;58.386;15.560;2023-02-02T08:11:35;100110.50;;;-4.17;100.00
10720;BME280;5411;58.386;15.560;2023-02-02T08:14:04;100123.31;;;-4.14;100.00
10720;BME280;5411;58.386;15.560;2023-02-02T08:16:33;100120.56;;;-4.12;100.00
10720;BME280;5411;58.386;15.560;2023-02-02T08:19:02;100132.56;;;-4.10;98.76
10720;BME280;5411;58.386;15.560;2023-02-02T08:21:31;100141.25;;;-4.09;98.56
10720;BME280;5411;58.386;15.560;2023-02-02T08:24:00;100147.78;;;-4.04;99.04
10720;BME280;5411;58.386;15.560;2023-02-02T08:26:31;100154.69;;;-4.03;97.72
10720;BME280;5411;58.386;15.560;2023-02-02T08:29:02;100159.91;;;-4.03;97.45
10720;BME280;5411;58.386;15.560;2023-02-02T08:31:33;100160.50;;;-3.99;98.05
10720;BME280;5411;58.386;15.560;2023-02-02T08:34:02;100164.91;;;-4.00;97.43
10720;BME280;5411;58.386;15.560;2023-02-02T08:36:31;100177.84;;;-3.98;97.05
10720;BME280;5411;58.386;15.560;2023-02-02T08:39:05;100183.66;;;-3.95;97.03
10720;BME280;5411;58.386;15.560;2023-02-02T08:41:36;100197.00;;;-3.86;96.75
10720;BME280;5411;58.386;15.560;2023-02-02T08:44:05;100195.91;;;-3.84;96.80
10720;BME280;5411;58.386;15.560;2023-02-02T08:46:38;100201.53;;;-3.77;97.55
10720;BME280;5411;58.386;15.560;2023-02-02T08:49:09;100202.00;;;-3.72;96.65
10720;BME280;5411;58.386;15.560;2023-02-02T08:51:41;100214.72;;;-3.79;94.95
10720;BME280;5411;58.386;15.560;2023-02-02T08:54:09;100212.69;;;-3.86;95.93
10720;BME280;5411;58.386;15.560;2023-02-02T08:56:38;100215.75;;;-3.92;95.74
10720;BME280;5411;58.386;15.560;2023-02-02T08:59:07;100220.63;;;-3.88;95.81
10720;BME280;5411;58.386;15.560;2023-02-02T09:01:35;100229.75;;;-3.93;95.78
10720;BME280;5411;58.386;15.560;2023-02-02T09:04:06;100235.44;;;-4.00;96.28
10720;BME280;5411;58.386;15.560;2023-02-02T09:06:36;100237.91;;;-3.98;96.02
10720;BME280;5411;58.386;15.560;2023-02-02T09:09:06;100244.22;;;-4.01;96.27
10720;BME280;5411;58.386;15.560;2023-02-02T09:11:36;100245.16;;;-4.02;95.91
10720;BME280;5411;58.386;15.560;2023-02-02T09:14:06;100246.59;;;-3.98;96.39
10720;BME280;5411;58.386;15.560;2023-02-02T09:16:35;100256.38;;;-3.88;96.38
10720;BME280;5411;58.386;15.560;2023-02-02T09:19:03;100254.13;;;-3.82;95.67
10720;BME280;5411;58.386;15.560;2023-02-02T09:21:32;100259.56;;;-3.85;95.21
10720;BME280;5411;58.386;15.560;2023-02-02T09:24:07;100264.47;;;-3.80;95.79
10720;BME280;5411;58.386;15.560;2023-02-02T09:26:36;100262.50;;;-3.66;94.17
10720;BME280;5411;58.386;15.560;2023-02-02T09:29:12;100264.06;;;-3.52;93.96
10720;BME280;5411;58.386;15.560;2023-02-02T09:31:40;100261.81;;;-3.45;94.03
10720;BME280;5411;58.386;15.560;2023-02-02T09:34:10;100256.75;;;-3.36;93.42
10720;BME280;5411;58.386;15.560;2023-02-02T09:36:39;100271.13;;;-3.19;92.26
10720;BME280;5411;58.386;15.560;2023-02-02T09:39:09;100274.59;;;-3.07;93.18
10720;BME280;5411;58.386;15.560;2023-02-02T09:41:54;100283.63;;;-2.89;92.37
10720;BME280;5411;58.386;15.560;2023-02-02T09:44:46;100286.38;;;-2.68;91.05
10720;BME280;5411;58.386;15.560;2023-02-02T09:47:21;100292.31;;;-2.66;90.55
10720;BME280;5411;58.386;15.560;2023-02-02T09:49:58;100302.53;;;-2.63;90.16
10720;BME280;5411;58.386;15.560;2023-02-02T09:52:32;100313.41;;;-2.68;89.80
10720;BME280;5411;58.386;15.560;2023-02-02T09:55:04;100308.63;;;-2.74;90.27
10720;BME280;5411;58.386;15.560;2023-02-02T09:57:38;100311.72;;;-2.69;90.66
10720;BME280;5411;58.386;15.560;2023-02-02T10:00:22;100303.97;;;-2.59;90.88
10720;BME280;5411;58.386;15.560;2023-02-02T10:02:57;100315.88;;;-2.55;90.20
10720;BME280;5411;58.386;15.560;2023-02-02T10:05:29;100326.22;;;-2.65;89.41
10720;BME280;5411;58.386;15.560;2023-02-02T10:08:01;100332.06;;;-2.72;89.84
10720;BME280;5411;58.386;15.560;2023-02-02T10:10:34;100336.94;;;-2.79;89.68
10720;BME280;5411;58.386;15.560;2023-02-02T10:13:11;100337.41;;;-2.85;89.96
10720;BME280;5411;58.386;15.560;2023-02-02T10:15:51;100334.69;;;-2.95;90.04
10720;BME280;5411;58.386;15.560;2023-02-02T10:18:34;100344.19;;;-2.94;89.86
10720;BME280;5411;58.386;15.560;2023-02-02T10:21:07;100354.06;;;-2.86;89.52
10720;BME280;5411;58.386;15.560;2023-02-02T10:23:38;100347.88;;;-2.85;89.95
10720;BME280;5411;58.386;15.560;2023-02-02T10:26:14;100359.69;;;-2.68;90.29
10720;BME280;5411;58.386;15.560;2023-02-02T10:31:48;100356.34;;;-2.48;88.06
10720;BME280;5411;58.386;15.560;2023-02-02T10:34:21;100362.91;;;-2.42;88.03
10720;BME280;5411;58.386;15.560;2023-02-02T10:37:01;100352.03;;;-2.38;87.09
10720;BME280;5411;58.386;15.560;2023-02-02T10:39:45;100359.22;;;-2.40;86.77
10720;BME280;5411;58.386;15.560;2023-02-02T10:42:27;100354.53;;;-2.36;86.63
10720;BME280;5411;58.386;15.560;2023-02-02T10:45:13;100358.94;;;-2.26;86.84
10720;BME280;5411;58.386;15.560;2023-02-02T10:47:44;100365.72;;;-2.23;86.33
10720;BME280;5411;58.386;15.560;2023-02-02T10:50:18;100370.59;;;-2.19;86.40
10720;BME280;5411;58.386;15.560;2023-02-02T10:52:49;100373.22;;;-2.19;85.32
10720;BME280;5411;58.386;15.560;2023-02-02T10:55:24;100367.03;;;-2.18;85.26
10720;BME280;5411;58.386;15.560;2023-02-02T10:58:07;100365.38;;;-2.19;85.70
10720;BME280;5411;58.386;15.560;2023-02-02T11:00:46;100370.13;;;-2.24;85.86
10720;BME280;5411;58.386;15.560;2023-02-02T11:03:20;100373.81;;;-2.26;86.09
10720;BME280;5411;58.386;15.560;2023-02-02T11:05:49;100371.56;;;-2.31;87.25
10720;BME280;5411;58.386;15.560;2023-02-02T11:08:37;100370.03;;;-2.33;87.44
10720;BME280;5411;58.386;15.560;2023-02-02T11:11:11;100369.06;;;-2.32;88.09
10720;BME280;5411;58.386;15.560;2023-02-02T11:13:47;100371.19;;;-2.26;88.19
10720;BME280;5411;58.386;15.560;2023-02-02T11:16:25;100373.34;;;-2.20;87.00
10720;BME280;5411;58.386;15.560;2023-02-02T11:19:27;100377.75;;;-2.21;87.26
10720;BME280;5411;58.386;15.560;2023-02-02T11:21:57;100379.66;;;-2.23;87.60
10720;BME280;5411;58.386;15.560;2023-02-02T11:24:28;100387.91;;;-2.27;87.29
10720;BME280;5411;58.386;15.560;2023-02-02T11:26:58;100392.28;;;-2.28;87.55
10720;BME280;5411;58.386;15.560;2023-02-02T11:29:29;100396.59;;;-2.27;86.61
10720;BME280;5411;58.386;15.560;2023-02-02T11:32:17;100400.00;;;-2.26;86.70
10720;BME280;5411;58.386;15.560;2023-02-02T11:34:47;100398.22;;;-2.26;87.36
10720;BME280;5411;58.386;15.560;2023-02-02T11:37:20;100398.59;;;-2.19;87.78
10720;BME280;5411;58.386;15.560;2023-02-02T11:39:51;100398.34;;;-2.16;87.64
10720;BME280;5411;58.386;15.560;2023-02-02T11:42:22;100402.75;;;-2.17;86.66
10720;BME280;5411;58.386;15.560;2023-02-02T11:44:52;100405.00;;;-2.12;87.71
10720;BME280;5411;58.386;15.560;2023-02-02T11:47:26;100396.91;;;-2.09;87.97
10720;BME280;5411;58.386;15.560;2023-02-02T11:49:59;100401.69;;;-2.03;87.91
10720;BME280;5411;58.386;15.560;2023-02-02T11:52:30;100392.03;;;-2.02;87.29
10720;BME280;5411;58.386;15.560;2023-02-02T11:55:01;100402.13;;;-1.98;87.00
10720;BME280;5411;58.386;15.560;2023-02-02T11:57:37;100411.22;;;-2.02;87.43
10720;BME280;5411;58.386;15.560;2023-02-02T12:00:15;100408.59;;;-2.02;87.06
10720;BME280;5411;58.386;15.560;2023-02-02T12:02:45;100411.44;;;-2.05;87.25
10720;BME280;5411;58.386;15.560;2023-02-02T12:05:33;100414.28;;;-2.08;87.66
10720;BME280;5411;58.386;15.560;2023-02-02T12:08:02;100415.84;;;-2.05;88.13
10720;BME280;5411;58.386;15.560;2023-02-02T12:10:36;100416.69;;;-2.05;87.05
10720;BME280;5411;58.386;15.560;2023-02-02T12:13:14;100418.34;;;-2.04;86.83
10720;BME280;5411;58.386;15.560;2023-02-02T12:15:50;100414.41;;;-1.98;87.14
10720;BME280;5411;58.386;15.560;2023-02-02T12:18:37;100412.84;;;-1.90;88.06
10720;BME280;5411;58.386;15.560;2023-02-02T12:21:13;100417.25;;;-1.79;87.72
10720;BME280;5411;58.386;15.560;2023-02-02T12:23:51;100437.59;;;-1.71;87.53
10720;BME280;5411;58.386;15.560;2023-02-02T12:26:27;100432.00;;;-1.67;86.93
10720;BME280;5411;58.386;15.560;2023-02-02T12:29:13;100434.50;;;-1.65;87.61
10720;BME280;5411;58.386;15.560;2023-02-02T12:31:52;100442.22;;;-1.64;86.86
10720;BME280;5411;58.386;15.560;2023-02-02T12:34:34;100452.72;;;-1.64;86.49
10720;BME280;5411;58.386;15.560;2023-02-02T12:37:14;100446.41;;;-1.61;86.79
10720;BME280;5411;58.386;15.560;2023-02-02T12:39:55;100442.84;;;-1.60;86.29
10720;BME280;5411;58.386;15.560;2023-02-02T12:42:43;100437.59;;;-1.60;86.38
10720;BME280;5411;58.386;15.560;2023-02-02T12:45:39;100451.66;;;-1.61;86.27
10720;BME280;5411;58.386;15.560;2023-02-02T12:48:24;100461.19;;;-1.60;86.81
10720;BME280;5411;58.386;15.560;2023-02-02T12:51:09;100454.84;;;-1.58;87.40
10720;BME280;5411;58.386;15.560;2023-02-02T12:54:16;100462.22;;;-1.52;87.11
10720;BME280;5411;58.386;15.560;2023-02-02T12:57:07;100461.03;;;-1.48;87.38
10720;BME280;5411;58.386;15.560;2023-02-02T13:00:02;100472.69;;;-1.40;87.35
10720;BME280;5411;58.386;15.560;2023-02-02T13:02:39;100470.66;;;-1.37;87.38
10720;BME280;5411;58.386;15.560;2023-02-02T13:05:26;100455.88;;;-1.38;87.31
10720;BME280;5411;58.386;15.560;2023-02-02T13:08:00;100465.19;;;-1.34;87.08
10720;BME280;5411;58.386;15.560;2023-02-02T13:10:34;100462.41;;;-1.32;87.15
10720;BME280;5411;58.386;15.560;2023-02-02T13:13:07;100469.31;;;-1.31;87.15
10720;BME280;5411;58.386;15.560;2023-02-02T13:15:43;100460.50;;;-1.30;87.74
10720;BME280;5411;58.386;15.560;2023-02-02T13:18:18;100477.19;;;-1.31;87.55
10720;BME280;5411;58.386;15.560;2023-02-02T13:20:54;100475.88;;;-1.26;87.84
10720;BME280;5411;58.386;15.560;2023-02-02T13:23:27;100490.91;;;-1.28;88.01
10720;BME280;5411;58.386;15.560;2023-02-02T13:26:01;100489.34;;;-1.30;88.89